Time;durP1;ratioP1;P1;durP2;ratioP2;P2;SDS_P1;SDS_P2;PMS_P1;PMS_P2;Temp;Humidity;BMP_temperature;BMP_pressure;BME280_temperature;BME280_humidity;BME280_pressure;Samples;Min_cycle;Max_cycle;Signal;HPM_P1;HPM_P2
2022/02/06 00:00:00;;;;;;;19.20;2.50;;;;;;;1.92;72.86;100247.02;105913;1268;25417;-58
2022/02/06 00:02:33;;;;;;;14.80;2.70;;;;;;;1.95;72.87;100243.90;105842;1270;22539;-58
2022/02/06 00:05:02;;;;;;;13.80;3.10;;;;;;;1.98;72.91;100241.64;105914;1268;22535;-57
2022/02/06 00:07:30;;;;;;;13.40;2.70;;;;;;;2.01;72.92;100239.06;106325;1267;22560;-56
2022/02/06 00:10:00;;;;;;;14.80;2.60;;;;;;;2.03;72.82;100233.45;106215;1268;22548;-57
2022/02/06 00:12:28;;;;;;;15.30;2.90;;;;;;;2.06;72.82;100231.90;105952;1268;22531;-58
2022/02/06 00:14:56;;;;;;;13.00;2.30;;;;;;;2.09;72.94;100230.10;105973;1268;22615;-57
2022/02/06 00:17:28;;;;;;;14.70;2.50;;;;;;;2.11;72.88;100226.20;105903;1270;22528;-59
2022/02/06 00:19:57;;;;;;;12.30;2.00;;;;;;;2.12;72.97;100229.34;105973;1270;22531;-56
2022/02/06 00:22:31;;;;;;;15.00;2.50;;;;;;;2.13;72.89;100226.89;105838;1270;22583;-57
2022/02/06 00:25:14;;;;;;;9.20;2.20;;;;;;;2.14;72.92;100226.09;106033;1269;22539;-56
2022/02/06 00:27:57;;;;;;;12.00;2.10;;;;;;;2.15;73.04;100222.60;105903;1269;25343;-59
2022/02/06 00:30:31;;;;;;;13.70;2.00;;;;;;;2.16;73.02;100215.73;105886;1270;22693;-56
2022/02/06 00:33:04;;;;;;;9.50;2.00;;;;;;;2.17;72.95;100208.63;106043;1270;25424;-57
2022/02/06 00:35:56;;;;;;;12.10;2.10;;;;;;;2.18;73.09;100205.86;106366;1259;22558;-57
2022/02/06 00:38:35;;;;;;;12.00;1.80;;;;;;;2.19;73.15;100204.34;105705;1270;22538;-59
2022/02/06 00:41:14;;;;;;;11.60;2.50;;;;;;;2.20;73.02;100198.26;105809;1270;22556;-58
2022/02/06 00:43:43;;;;;;;9.80;2.00;;;;;;;2.21;73.03;100190.14;106087;1270;24256;-58
2022/02/06 00:46:15;;;;;;;14.30;2.30;;;;;;;2.23;73.06;100183.80;106090;1270;22553;-58
2022/02/06 00:48:51;;;;;;;10.90;2.00;;;;;;;2.24;73.02;100178.03;106485;1270;24061;-59
2022/02/06 00:51:28;;;;;;;12.20;2.00;;;;;;;2.25;73.15;100168.50;105904;1270;22532;-58
2022/02/06 00:53:56;;;;;;;12.20;2.10;;;;;;;2.26;73.09;100161.01;106126;1271;22982;-59
2022/02/06 00:56:26;;;;;;;12.10;2.00;;;;;;;2.27;73.05;100163.19;105841;1270;24224;-57
2022/02/06 00:58:54;;;;;;;12.90;2.00;;;;;;;2.27;73.08;100163.96;106178;1270;22563;-58
2022/02/06 01:01:23;;;;;;;13.40;1.70;;;;;;;2.29;73.06;100160.48;106105;1271;25267;-58
2022/02/06 01:03:53;;;;;;;12.10;1.90;;;;;;;2.30;73.18;100159.42;106170;1271;22656;-56
2022/02/06 01:06:22;;;;;;;15.10;2.30;;;;;;;2.30;73.16;100153.36;106253;1271;24383;-58
2022/02/06 01:08:51;;;;;;;9.90;1.80;;;;;;;2.31;73.14;100148.94;106204;1270;22729;-58
2022/02/06 01:11:22;;;;;;;13.10;1.80;;;;;;;2.32;73.06;100141.51;105944;1271;22838;-57
2022/02/06 01:14:03;;;;;;;8.50;1.80;;;;;;;2.33;73.01;100140.63;106120;1271;22660;-57
2022/02/06 01:16:36;;;;;;;7.40;1.40;;;;;;;2.32;73.00;100137.89;106012;1271;22542;-57
2022/02/06 01:19:08;;;;;;;6.70;1.50;;;;;;;2.33;73.09;100136.45;106040;1271;22776;-58
2022/02/06 01:21:47;;;;;;;14.50;2.40;;;;;;;2.33;73.04;100130.55;106214;1271;23339;-58
2022/02/06 01:24:19;;;;;;;9.20;1.50;;;;;;;2.34;73.02;100125.81;105979;1270;22528;-60
2022/02/06 01:26:48;;;;;;;10.50;1.70;;;;;;;2.34;73.02;100117.63;106032;1270;24369;-58
2022/02/06 01:29:28;;;;;;;13.00;1.60;;;;;;;2.34;73.15;100116.59;106037;1270;24243;-59
2022/02/06 01:32:01;;;;;;;16.60;2.10;;;;;;;2.35;73.03;100112.57;105933;1270;23474;-58
2022/02/06 01:34:41;;;;;;;10.70;1.70;;;;;;;2.35;73.04;100103.91;106098;1270;22571;-59
2022/02/06 01:37:18;;;;;;;10.30;1.90;;;;;;;2.36;73.05;100098.30;106034;1270;24463;-58
2022/02/06 01:40:00;;;;;;;10.80;1.50;;;;;;;2.36;72.96;100100.10;106113;1271;25525;-59
2022/02/06 01:42:34;;;;;;;8.20;1.60;;;;;;;2.37;73.06;100092.04;105957;1270;24421;-59
2022/02/06 02:04:54;;;;;;;10.10;1.60;;;;;;;2.46;72.83;100043.58;104727;1282;25494;-56
2022/02/06 02:07:40;;;;;;;9.50;1.50;;;;;;;2.49;72.73;100044.40;104876;1284;23991;-56
2022/02/06 02:13:22;;;;;;;7.60;1.40;;;;;;;2.52;72.51;100045.75;104457;1286;22579;-58
2022/02/06 02:24:43;;;;;;;8.50;1.30;;;;;;;2.56;72.55;100027.14;104409;1285;24427;-58
2022/02/06 02:27:22;;;;;;;8.60;1.40;;;;;;;2.56;72.46;100025.57;105045;1280;25713;-58
2022/02/06 02:33:07;;;;;;;7.00;1.20;;;;;;;2.56;72.49;100013.54;105300;1279;22727;-58
2022/02/06 02:46:58;;;;;;;8.30;1.30;;;;;;;2.53;72.51;99997.07;105417;1276;22586;-58
2022/02/06 02:49:31;;;;;;;7.80;1.20;;;;;;;2.54;72.50;99995.63;105432;1276;25752;-57
2022/02/06 02:52:05;;;;;;;5.20;1.10;;;;;;;2.54;72.58;99985.70;105808;1270;24260;-59
2022/02/06 02:54:36;;;;;;;7.20;0.90;;;;;;;2.55;72.51;99980.41;105908;1270;22572;-59
2022/02/06 02:57:15;;;;;;;9.20;1.40;;;;;;;2.55;72.59;99975.05;105861;1270;24780;-60
2022/02/06 02:59:57;;;;;;;8.20;1.30;;;;;;;2.56;72.54;99973.92;105609;1270;22641;-58
2022/02/06 03:02:25;;;;;;;6.20;1.30;;;;;;;2.57;72.66;99970.27;105686;1270;22688;-57
2022/02/06 03:04:56;;;;;;;8.00;1.20;;;;;;;2.58;72.58;99964.91;105849;1270;22566;-59
2022/02/06 03:07:24;;;;;;;7.30;1.30;;;;;;;2.60;72.64;99963.20;105839;1270;23801;-57
2022/02/06 03:09:52;;;;;;;10.40;1.30;;;;;;;2.61;72.76;99955.38;105803;1270;22549;-57
2022/02/06 03:12:25;;;;;;;7.90;1.20;;;;;;;2.63;72.64;99952.17;105754;1270;24410;-58
2022/02/06 03:15:04;;;;;;;8.80;1.20;;;;;;;2.66;72.63;99949.73;105878;1270;24300;-58
2022/02/06 03:17:35;;;;;;;8.70;1.30;;;;;;;2.68;72.64;99947.02;105786;1270;22556;-58
2022/02/06 03:20:08;;;;;;;8.30;1.40;;;;;;;2.69;72.58;99944.07;105801;1270;22821;-59
2022/02/06 03:22:49;;;;;;;10.40;1.20;;;;;;;2.70;72.56;99935.45;105819;1270;23248;-58
2022/02/06 03:25:20;;;;;;;4.90;1.10;;;;;;;2.72;72.58;99926.98;105913;1270;22552;-58
2022/02/06 03:27:49;;;;;;;4.80;1.10;;;;;;;2.74;72.56;99926.48;106190;1270;22566;-61
2022/02/06 03:30:20;;;;;;;8.20;1.20;;;;;;;2.76;72.57;99925.86;105901;1270;26533;-59
2022/02/06 03:32:50;;;;;;;10.50;1.30;;;;;;;2.76;72.63;99924.59;105904;1270;22686;-57
2022/02/06 03:35:19;;;;;;;4.20;0.90;;;;;;;2.77;72.55;99919.45;105984;1270;22544;-57
2022/02/06 03:37:48;;;;;;;8.80;1.00;;;;;;;2.79;72.63;99914.05;105895;1270;24498;-58
2022/02/06 03:40:21;;;;;;;5.30;1.00;;;;;;;2.80;72.61;99908.34;105698;1270;23141;-59
2022/02/06 03:43:02;;;;;;;6.10;0.80;;;;;;;2.82;72.59;99909.71;105891;1270;22557;-59
2022/02/06 03:45:38;;;;;;;6.80;1.00;;;;;;;2.83;72.61;99904.32;105864;1270;25254;-58
2022/02/06 03:50:59;;;;;;;6.30;0.90;;;;;;;2.86;72.51;99887.70;106003;1270;25404;-58
2022/02/06 03:53:29;;;;;;;8.30;1.10;;;;;;;2.88;72.63;99878.66;105924;1270;22550;-58
2022/02/06 03:55:59;;;;;;;7.50;1.20;;;;;;;2.90;72.60;99880.81;106336;1270;25704;-57
2022/02/06 03:58:28;;;;;;;7.80;1.20;;;;;;;2.91;72.49;99876.14;105933;1270;22586;-58
2022/02/06 04:00:57;;;;;;;7.30;1.20;;;;;;;2.92;72.69;99876.58;105851;1270;24245;-58
2022/02/06 04:03:25;;;;;;;6.30;1.10;;;;;;;2.92;72.58;99870.82;105943;1270;25458;-58
2022/02/06 04:05:53;;;;;;;7.80;1.10;;;;;;;2.93;72.68;99861.89;105927;1270;23039;-57
2022/02/06 04:08:22;;;;;;;8.00;1.10;;;;;;;2.94;72.58;99860.06;105910;1270;22577;-58
2022/02/06 04:10:52;;;;;;;7.50;1.20;;;;;;;2.94;72.68;99854.86;105917;1270;24225;-59
2022/02/06 04:13:23;;;;;;;10.30;1.00;;;;;;;2.94;72.67;99845.80;105834;1270;25624;-59
2022/02/06 04:15:56;;;;;;;6.50;0.70;;;;;;;2.95;72.61;99844.83;105844;1270;25422;-58
2022/02/06 04:18:30;;;;;;;5.10;1.10;;;;;;;2.96;72.65;99838.84;105911;1270;24273;-59
2022/02/06 04:20:58;;;;;;;6.30;1.10;;;;;;;2.96;72.72;99838.29;105917;1270;22576;-58
2022/02/06 04:23:27;;;;;;;5.20;0.80;;;;;;;2.97;72.76;99833.36;105847;1270;22541;-59
2022/02/06 04:25:56;;;;;;;6.80;0.80;;;;;;;2.97;72.80;99825.79;106031;1270;22702;-57
2022/02/06 04:28:25;;;;;;;4.80;0.80;;;;;;;2.97;72.80;99817.84;105919;1270;22563;-58
2022/02/06 04:30:53;;;;;;;12.60;1.20;;;;;;;2.97;72.82;99797.83;105975;1270;22558;-59
2022/02/06 04:33:22;;;;;;;6.40;0.90;;;;;;;2.97;72.76;99794.27;106035;1270;22550;-59
2022/02/06 04:35:52;;;;;;;6.20;0.90;;;;;;;2.97;72.80;99786.09;106016;1270;25299;-57
2022/02/06 04:38:38;;;;;;;5.30;1.00;;;;;;;2.97;72.78;99781.43;105969;1270;22537;-57
2022/02/06 04:41:19;;;;;;;3.70;0.60;;;;;;;2.97;72.90;99772.53;105901;1270;22659;-59
2022/02/06 04:44:20;;;;;;;3.70;0.70;;;;;;;2.98;72.82;99771.09;106139;1270;24952;-59
2022/02/06 04:47:34;;;;;;;4.90;0.70;;;;;;;2.99;72.97;99763.50;105958;1270;25560;-56
2022/02/06 05:15:13;;;;;;;5.40;0.60;;;;;;;3.06;73.14;99719.09;105536;1274;22534;-59
2022/02/06 05:18:12;;;;;;;3.70;0.70;;;;;;;3.07;73.20;99716.19;105474;1273;25337;-58
2022/02/06 05:21:12;;;;;;;4.10;0.80;;;;;;;3.09;73.23;99714.34;105499;1274;22643;-58
2022/02/06 05:24:05;;;;;;;7.00;0.70;;;;;;;3.10;73.18;99709.17;105543;1273;23659;-56
2022/02/06 05:26:52;;;;;;;3.40;0.60;;;;;;;3.11;73.23;99708.66;105539;1271;24457;-58
2022/02/06 05:29:29;;;;;;;4.20;0.70;;;;;;;3.12;73.17;99700.13;105932;1271;24364;-58
2022/02/06 05:32:13;;;;;;;6.10;0.60;;;;;;;3.14;73.19;99704.66;106047;1268;25491;-59
2022/02/06 05:34:41;;;;;;;4.10;0.60;;;;;;;3.14;73.17;99701.34;106091;1271;24252;-59
2022/02/06 05:37:10;;;;;;;4.30;0.70;;;;;;;3.15;73.20;99690.98;106304;1271;22766;-58
2022/02/06 05:39:38;;;;;;;4.60;0.60;;;;;;;3.17;73.24;99691.09;105995;1270;22555;-58
2022/02/06 05:42:09;;;;;;;9.10;0.90;;;;;;;3.18;73.27;99692.31;105972;1270;22575;-58
2022/02/06 05:44:38;;;;;;;6.30;0.80;;;;;;;3.20;73.31;99684.68;106431;1271;25615;-61
2022/02/06 05:47:07;;;;;;;3.20;0.80;;;;;;;3.20;73.36;99684.81;106061;1271;24420;-58
2022/02/06 05:49:36;;;;;;;4.20;0.80;;;;;;;3.21;73.35;99678.89;106181;1271;22716;-60
2022/02/06 05:52:06;;;;;;;4.30;0.50;;;;;;;3.22;73.31;99677.98;106118;1271;25317;-58
2022/02/06 05:54:35;;;;;;;4.40;0.60;;;;;;;3.24;73.37;99675.88;106056;1271;22704;-60
2022/02/06 05:57:04;;;;;;;2.90;0.60;;;;;;;3.25;73.47;99671.18;106102;1271;25263;-57
2022/02/06 05:59:34;;;;;;;2.30;0.40;;;;;;;3.25;73.51;99668.74;106068;1270;25540;-58
2022/02/06 06:02:03;;;;;;;5.00;0.50;;;;;;;3.26;73.47;99666.13;106128;1271;22672;-60
2022/02/06 06:04:32;;;;;;;3.00;0.40;;;;;;;3.28;73.45;99665.58;106187;1271;25299;-59
2022/02/06 06:07:01;;;;;;;3.90;0.70;;;;;;;3.28;73.52;99664.86;106292;1271;22563;-59
2022/02/06 06:09:30;;;;;;;2.90;0.30;;;;;;;3.30;73.50;99663.46;106313;1270;24306;-59
2022/02/06 06:11:58;;;;;;;4.50;0.50;;;;;;;3.32;73.53;99661.45;105879;1270;22575;-59
2022/02/06 06:14:29;;;;;;;4.60;0.50;;;;;;;3.33;73.64;99661.50;106031;1271;23176;-59
2022/02/06 06:16:58;;;;;;;1.50;0.40;;;;;;;3.33;73.69;99655.81;105870;1271;23906;-59
2022/02/06 06:19:26;;;;;;;3.80;0.50;;;;;;;3.34;73.80;99652.38;106178;1271;22688;-59
2022/02/06 06:21:57;;;;;;;2.70;0.50;;;;;;;3.35;73.84;99651.90;106027;1271;22549;-59
2022/02/06 06:24:26;;;;;;;4.10;0.80;;;;;;;3.36;73.92;99658.40;106010;1271;22531;-59
2022/02/06 06:26:56;;;;;;;1.80;0.50;;;;;;;3.37;73.82;99654.67;106028;1271;24305;-59
2022/02/06 06:29:25;;;;;;;2.20;0.40;;;;;;;3.38;73.97;99653.50;106063;1271;23010;-60
2022/02/06 06:31:53;;;;;;;4.80;0.70;;;;;;;3.39;73.95;99649.70;106337;1271;24285;-59
2022/02/06 06:34:22;;;;;;;1.70;0.40;;;;;;;3.40;74.00;99647.23;106067;1271;25170;-57
2022/02/06 06:36:52;;;;;;;6.80;0.90;;;;;;;3.41;74.06;99640.86;106123;1271;22585;-59
2022/02/06 06:39:31;;;;;;;5.20;0.50;;;;;;;3.43;74.03;99639.46;105990;1271;24432;-58
2022/02/06 06:42:01;;;;;;;2.40;0.40;;;;;;;3.45;74.13;99638.23;105851;1270;22619;-59
2022/02/06 06:44:30;;;;;;;1.90;0.40;;;;;;;3.47;74.13;99635.25;105872;1271;22553;-61
2022/02/06 06:46:58;;;;;;;3.00;0.40;;;;;;;3.48;74.18;99632.77;105925;1271;25403;-59
2022/02/06 06:49:27;;;;;;;3.00;0.40;;;;;;;3.50;74.13;99630.47;106059;1271;25669;-57
2022/02/06 06:51:56;;;;;;;3.60;0.40;;;;;;;3.53;74.11;99631.66;106220;1271;24739;-59
2022/02/06 06:54:25;;;;;;;1.40;0.20;;;;;;;3.55;74.20;99632.75;106037;1271;24315;-59
2022/02/06 06:56:58;;;;;;;2.70;0.30;;;;;;;3.57;74.34;99624.30;105987;1271;24383;-59
2022/02/06 06:59:43;;;;;;;1.50;0.20;;;;;;;3.58;74.69;99623.77;106004;1271;25315;-60
2022/02/06 07:02:17;;;;;;;1.20;0.20;;;;;;;3.58;74.97;99623.67;105881;1268;22703;-59
2022/02/06 07:04:47;;;;;;;2.20;0.30;;;;;;;3.58;75.20;99622.02;106008;1271;22540;-60
2022/02/06 07:07:17;;;;;;;2.70;0.30;;;;;;;3.58;75.38;99622.81;105975;1269;22563;-60
2022/02/06 07:09:46;;;;;;;0.80;0.20;;;;;;;3.58;75.52;99622.10;106016;1268;24355;-59
2022/02/06 07:12:14;;;;;;;3.00;0.40;;;;;;;3.57;75.75;99620.61;105999;1268;23651;-59
2022/02/06 07:14:44;;;;;;;3.40;0.40;;;;;;;3.56;75.82;99621.04;105779;1270;22554;-60
2022/02/06 07:17:13;;;;;;;1.60;0.30;;;;;;;3.56;75.98;99612.36;106199;1268;25264;-59
2022/02/06 07:19:43;;;;;;;2.10;0.40;;;;;;;3.57;75.97;99612.73;105919;1271;22677;-59
2022/02/06 07:22:15;;;;;;;2.10;0.30;;;;;;;3.58;76.05;99612.73;105946;1271;22564;-60
2022/02/06 07:24:44;;;;;;;1.60;0.40;;;;;;;3.58;76.06;99603.61;106355;1271;24233;-61
2022/02/06 07:27:23;;;;;;;2.10;0.40;;;;;;;3.59;76.06;99599.18;105829;1271;25285;-56
2022/02/06 07:29:52;;;;;;;1.90;0.40;;;;;;;3.62;75.98;99599.70;106127;1271;25352;-59
2022/02/06 07:32:21;;;;;;;3.50;0.50;;;;;;;3.63;75.93;99592.95;105981;1270;23155;-59
2022/02/06 07:34:50;;;;;;;2.90;0.40;;;;;;;3.66;75.96;99588.19;105864;1270;24357;-59
2022/02/06 07:37:20;;;;;;;4.80;0.50;;;;;;;3.70;75.94;99587.92;106060;1271;25404;-59
2022/02/06 07:39:48;;;;;;;2.30;0.30;;;;;;;3.73;75.89;99585.37;106071;1271;22542;-59
2022/02/06 07:42:16;;;;;;;4.50;0.60;;;;;;;3.76;75.78;99576.09;105854;1271;24306;-60
2022/02/06 07:44:47;;;;;;;3.40;0.40;;;;;;;3.80;75.84;99572.96;105926;1271;22576;-57
2022/02/06 07:47:19;;;;;;;3.80;0.60;;;;;;;3.83;75.91;99567.48;106191;1271;25433;-60
2022/02/06 07:49:50;;;;;;;4.90;0.90;;;;;;;3.86;75.99;99562.48;105962;1271;22657;-59
2022/02/06 07:52:18;;;;;;;;;;;;;;;3.89;76.00;99560.02;106013;1271;22520;-60
2022/02/06 07:54:47;;;;;;;5.00;0.60;;;;;;;3.91;76.05;99557.18;105809;1271;22539;-61
2022/02/06 07:57:15;;;;;;;5.00;0.50;;;;;;;3.92;76.08;99552.23;105780;1272;25365;-59
2022/02/06 07:59:45;;;;;;;4.00;0.70;;;;;;;3.95;76.13;99545.83;105953;1268;22531;-59
2022/02/06 08:02:15;;;;;;;3.30;0.60;;;;;;;3.97;76.00;99544.59;106148;1268;22621;-60
2022/02/06 08:04:46;;;;;;;7.00;1.00;;;;;;;3.99;76.06;99538.02;106054;1268;25250;-59
2022/02/06 08:07:15;;;;;;;7.80;1.20;;;;;;;4.02;76.02;99532.61;105927;1268;24374;-62
2022/02/06 08:09:52;;;;;;;8.10;1.20;;;;;;;4.04;76.19;99525.29;105982;1268;22707;-59
2022/02/06 08:12:27;;;;;;;7.50;0.90;;;;;;;4.05;76.07;99527.52;105867;1271;22620;-60
2022/02/06 08:14:59;;;;;;;5.60;1.00;;;;;;;4.06;76.04;99517.45;105913;1271;24309;-60
2022/02/06 08:17:30;;;;;;;5.20;0.80;;;;;;;4.08;76.01;99515.40;106083;1270;25373;-59
2022/02/06 08:20:02;;;;;;;8.00;0.80;;;;;;;4.10;76.14;99508.77;105928;1271;22551;-60
2022/02/06 08:22:31;;;;;;;4.70;0.70;;;;;;;4.14;76.11;99506.37;105865;1270;24411;-59
2022/02/06 08:25:00;;;;;;;4.20;0.80;;;;;;;4.17;76.13;99503.65;105975;1271;24661;-60
2022/02/06 08:27:29;;;;;;;4.30;0.60;;;;;;;4.20;76.16;99505.52;105841;1270;22654;-60
2022/02/06 08:30:00;;;;;;;5.60;0.40;;;;;;;4.22;76.02;99501.77;106026;1271;24552;-59
2022/02/06 08:32:29;;;;;;;4.80;0.50;;;;;;;4.25;76.00;99494.48;106123;1270;22549;-59
2022/02/06 08:34:58;;;;;;;2.10;0.40;;;;;;;4.27;76.06;99494.86;106169;1271;24285;-60
2022/02/06 08:37:27;;;;;;;4.10;0.60;;;;;;;4.30;75.93;99490.02;105952;1271;22872;-59
2022/02/06 08:39:56;;;;;;;3.40;0.50;;;;;;;4.33;75.81;99488.25;106072;1268;26326;-60
2022/02/06 08:42:24;;;;;;;3.20;0.60;;;;;;;4.35;75.82;99488.23;106098;1271;22652;-60
2022/02/06 08:44:53;;;;;;;3.00;0.50;;;;;;;4.38;75.95;99481.42;105837;1274;22531;-60
2022/02/06 08:47:22;;;;;;;3.70;0.70;;;;;;;4.40;75.88;99477.95;105892;1272;22562;-58
2022/02/06 08:49:52;;;;;;;4.60;0.70;;;;;;;4.41;75.71;99474.03;105878;1271;22564;-60
2022/02/06 08:52:21;;;;;;;3.30;0.50;;;;;;;4.43;75.88;99479.14;106051;1271;25436;-61
2022/02/06 08:54:50;;;;;;;6.90;0.80;;;;;;;4.45;75.85;99472.46;105875;1268;22693;-63
2022/02/06 08:57:22;;;;;;;3.00;0.60;;;;;;;4.47;76.05;99468.26;106015;1271;24211;-62
2022/02/06 08:59:52;;;;;;;4.00;0.70;;;;;;;4.50;75.97;99462.15;105980;1271;22652;-61
2022/02/06 09:02:22;;;;;;;4.30;0.70;;;;;;;4.52;75.84;99458.48;106568;1268;22590;-60
2022/02/06 09:04:51;;;;;;;6.80;0.90;;;;;;;4.54;75.87;99459.12;105943;1268;24193;-61
2022/02/06 09:07:22;;;;;;;8.90;1.30;;;;;;;4.57;75.76;99459.55;106112;1270;22514;-59
2022/02/06 09:09:57;;;;;;;6.60;1.00;;;;;;;4.59;75.84;99459.71;105899;1271;22554;-61
2022/02/06 09:12:26;;;;;;;5.50;0.80;;;;;;;4.61;75.85;99455.27;105938;1271;22572;-60
2022/02/06 09:14:55;;;;;;;6.70;0.90;;;;;;;4.63;75.71;99448.95;105978;1271;22548;-60
2022/02/06 09:17:26;;;;;;;4.00;0.60;;;;;;;4.66;75.73;99446.09;105832;1271;22526;-60
2022/02/06 09:19:55;;;;;;;4.20;0.60;;;;;;;4.67;75.81;99440.72;105524;1271;22559;-60
2022/02/06 09:22:25;;;;;;;2.90;0.60;;;;;;;4.71;75.88;99444.45;106375;1269;22740;-61
2022/02/06 09:24:55;;;;;;;5.40;0.80;;;;;;;4.73;75.80;99439.27;106471;1271;23948;-60
2022/02/06 09:27:24;;;;;;;6.70;0.60;;;;;;;4.75;75.78;99434.92;105860;1271;22616;-59
2022/02/06 09:29:53;;;;;;;5.70;0.60;;;;;;;4.77;75.50;99431.44;105997;1271;26227;-58
2022/02/06 09:37:18;;;;;;;3.20;0.40;;;;;;;4.83;75.42;99429.56;106004;1271;22902;-60
2022/02/06 09:39:47;;;;;;;2.70;0.40;;;;;;;4.86;75.59;99429.19;105873;1271;22541;-60
2022/02/06 09:42:18;;;;;;;3.80;0.50;;;;;;;4.88;75.55;99424.06;105857;1271;22851;-61
2022/02/06 09:44:48;;;;;;;3.30;0.60;;;;;;;4.89;75.66;99414.65;106098;1271;22542;-60
2022/02/06 09:47:21;;;;;;;5.30;0.60;;;;;;;4.91;75.61;99411.19;105964;1268;22543;-60
2022/02/06 09:49:50;;;;;;;3.50;0.50;;;;;;;4.92;75.62;99407.59;107590;1270;25368;-59
2022/02/06 09:52:25;;;;;;;3.20;0.60;;;;;;;4.92;75.48;99406.86;106134;1268;22550;-58
2022/02/06 09:54:54;;;;;;;4.60;0.50;;;;;;;4.93;75.56;99406.52;106063;1268;22550;-58
2022/02/06 09:57:27;;;;;;;3.20;0.60;;;;;;;4.95;75.62;99396.95;106384;1268;22552;-61
2022/02/06 09:59:56;;;;;;;4.40;0.60;;;;;;;4.97;75.59;99394.49;106056;1271;25490;-60
2022/02/06 10:02:29;;;;;;;4.20;0.80;;;;;;;4.98;75.68;99391.15;106665;1270;26535;-62
2022/02/06 10:04:58;;;;;;;6.90;1.20;;;;;;;4.99;75.75;99388.32;106045;1270;23927;-60
2022/02/06 10:07:36;;;;;;;5.10;0.90;;;;;;;5.01;75.75;99384.05;106462;1268;22913;-58
2022/02/06 10:10:07;;;;;;;5.50;0.70;;;;;;;5.03;75.67;99381.04;105862;1271;22551;-61
2022/02/06 10:12:37;;;;;;;7.10;0.50;;;;;;;5.04;75.55;99374.36;106420;1271;25390;-60
2022/02/06 10:15:11;;;;;;;3.00;0.60;;;;;;;5.07;75.61;99374.33;106090;1268;22555;-59
2022/02/06 10:17:39;;;;;;;3.50;0.60;;;;;;;5.08;75.57;99371.56;106463;1271;22564;-58
2022/02/06 10:20:15;;;;;;;4.40;0.60;;;;;;;5.11;75.70;99364.48;106270;1270;23619;-61
2022/02/06 10:22:52;;;;;;;4.80;0.70;;;;;;;5.13;75.75;99362.09;105935;1271;24225;-61
2022/02/06 10:25:21;;;;;;;4.20;0.80;;;;;;;5.16;75.69;99362.02;105952;1270;25423;-60
2022/02/06 10:27:59;;;;;;;2.90;0.60;;;;;;;5.18;75.51;99355.54;106400;1271;25494;-61
2022/02/06 10:30:40;;;;;;;4.70;1.00;;;;;;;5.20;75.11;99342.71;105972;1271;24077;-62
2022/02/06 10:33:10;;;;;;;3.60;0.60;;;;;;;5.23;75.43;99336.34;105979;1271;25259;-62
2022/02/06 10:35:40;;;;;;;4.50;0.70;;;;;;;5.25;75.01;99333.78;105926;1271;22544;-58
2022/02/06 10:38:20;;;;;;;4.30;0.80;;;;;;;5.29;75.21;99326.42;106308;1271;22532;-60
2022/02/06 10:41:05;;;;;;;4.70;0.90;;;;;;;5.31;75.22;99321.81;106291;1270;25490;-64
2022/02/06 10:43:34;;;;;;;6.50;0.90;;;;;;;5.33;75.32;99325.03;106060;1270;22579;-60
2022/02/06 10:46:11;;;;;;;4.80;0.90;;;;;;;5.35;75.31;99320.14;105937;1271;25423;-59
2022/02/06 10:48:48;;;;;;;5.10;0.70;;;;;;;5.37;75.02;99314.36;106363;1268;22550;-59
2022/02/06 10:51:36;;;;;;;6.00;0.70;;;;;;;5.39;74.92;99314.31;106331;1270;22517;-60
2022/02/06 10:54:06;;;;;;;4.50;0.60;;;;;;;5.43;74.75;99308.66;106300;1271;25607;-60
2022/02/06 10:56:40;;;;;;;5.70;0.60;;;;;;;5.47;74.64;99304.27;106262;1271;22569;-60
2022/02/06 10:59:10;;;;;;;5.00;0.80;;;;;;;5.51;74.67;99300.71;106159;1268;23610;-61
2022/02/06 11:01:40;;;;;;;4.80;0.70;;;;;;;5.55;74.50;99295.87;106260;1270;32832;-56
2022/02/06 11:04:18;;;;;;;2.50;0.50;;;;;;;5.58;73.98;99294.37;106077;1271;24251;-58
2022/02/06 11:06:54;;;;;;;5.70;0.70;;;;;;;5.61;73.77;99285.65;105970;1271;25573;-57
2022/02/06 11:09:26;;;;;;;6.60;0.80;;;;;;;5.65;74.11;99277.78;106329;1271;22639;-58
2022/02/06 11:11:57;;;;;;;5.70;0.60;;;;;;;5.69;73.75;99271.67;106356;1270;25361;-56
2022/02/06 11:14:28;;;;;;;5.20;0.70;;;;;;;5.71;73.41;99263.88;105983;1271;24390;-59
2022/02/06 11:17:00;;;;;;;4.60;0.70;;;;;;;5.73;73.08;99257.63;106271;1270;24033;-61
2022/02/06 11:19:29;;;;;;;4.30;0.60;;;;;;;5.75;72.63;99253.10;106430;1270;22623;-56
2022/02/06 11:22:13;;;;;;;2.80;0.50;;;;;;;5.78;72.44;99252.42;106340;1271;23152;-58
2022/02/06 11:24:41;;;;;;;3.10;0.60;;;;;;;5.80;72.96;99244.08;105941;1271;23908;-59
2022/02/06 11:27:10;;;;;;;4.60;0.80;;;;;;;5.84;73.11;99232.34;105830;1270;22539;-60
2022/02/06 11:29:39;;;;;;;3.80;0.50;;;;;;;5.87;73.05;99224.36;106233;1270;22700;-58
2022/02/06 11:32:10;;;;;;;3.70;0.50;;;;;;;5.91;72.69;99215.55;107417;1268;26080;-58
2022/02/06 11:34:42;;;;;;;2.10;0.40;;;;;;;5.98;72.41;99211.55;106364;1270;23044;-60
2022/02/06 11:46:16;;;;;;;2.50;0.40;;;;;;;6.27;71.65;99176.50;105913;1271;27613;-58
2022/02/06 11:48:46;;;;;;;4.40;0.60;;;;;;;6.33;72.06;99172.34;106226;1267;23167;-58
2022/02/06 11:51:18;;;;;;;2.50;0.50;;;;;;;6.40;72.00;99167.73;105876;1271;25400;-61
2022/02/06 11:53:48;;;;;;;3.10;0.70;;;;;;;6.45;72.06;99164.35;106036;1271;25322;-58
2022/02/06 11:56:33;;;;;;;2.30;0.50;;;;;;;6.49;71.64;99156.21;106956;1268;24224;-60
2022/02/06 11:59:10;;;;;;;2.50;0.40;;;;;;;6.53;71.36;99148.96;106995;1268;22558;-61
2022/02/06 12:01:41;;;;;;;2.30;0.40;;;;;;;6.56;70.83;99145.87;105799;1268;36859;-64
2022/02/06 12:04:19;;;;;;;3.20;0.50;;;;;;;6.58;70.85;99153.52;105688;1268;22541;-63
2022/02/06 12:06:58;;;;;;;1.90;0.30;;;;;;;6.58;70.42;99157.16;105904;1271;22705;-63
2022/02/06 12:09:29;;;;;;;3.00;0.50;;;;;;;6.57;70.39;99157.39;107180;1271;22743;-64
2022/02/06 12:12:21;;;;;;;3.60;0.70;;;;;;;6.56;70.81;99157.58;105798;1268;22620;-63
2022/02/06 12:15:26;;;;;;;5.70;0.50;;;;;;;6.56;70.81;99150.86;105746;1271;22548;-62
2022/02/06 12:18:08;;;;;;;3.70;0.60;;;;;;;6.56;70.92;99146.67;105699;1271;25480;-62
2022/02/06 12:20:48;;;;;;;3.10;0.50;;;;;;;6.55;70.39;99149.34;105878;1268;22530;-64
2022/02/06 12:23:37;;;;;;;2.90;0.50;;;;;;;6.54;70.15;99140.66;106537;1268;25371;-62
2022/02/06 12:26:45;;;;;;;3.00;0.60;;;;;;;6.53;70.00;99137.52;105968;1268;25267;-62
2022/02/06 12:29:18;;;;;;;4.00;0.50;;;;;;;6.53;69.73;99124.96;105745;1268;24336;-64
2022/02/06 12:31:57;;;;;;;2.30;0.40;;;;;;;6.53;69.53;99130.17;106457;1268;22726;-64
2022/02/06 12:37:38;;;;;;;6.70;0.60;;;;;;;6.54;69.48;99115.21;105430;1268;39096;-65
2022/02/06 12:40:11;;;;;;;2.90;0.60;;;;;;;6.58;69.45;99108.40;105433;1271;22554;-64
2022/02/06 12:42:40;;;;;;;4.20;0.60;;;;;;;6.60;69.69;99107.23;105906;1271;22531;-63
2022/02/06 12:45:12;;;;;;;4.10;0.80;;;;;;;6.63;69.78;99104.45;105713;1270;22537;-64
2022/02/06 12:47:42;;;;;;;3.80;0.70;;;;;;;6.63;69.76;99098.35;105840;1271;22554;-63
2022/02/06 12:50:14;;;;;;;;;;;;;;;6.63;69.41;99095.64;105346;1268;22556;-63
2022/02/06 12:52:44;;;;;;;3.80;0.80;;;;;;;6.64;69.24;99092.31;109439;1268;22567;-65
2022/02/06 12:55:15;;;;;;;5.40;0.60;;;;;;;6.64;68.57;99089.14;107804;1270;23940;-63
2022/02/06 12:57:46;;;;;;;4.10;0.60;;;;;;;6.65;69.47;99079.73;105894;1268;22691;-64
2022/02/06 13:00:31;;;;;;;3.20;0.60;;;;;;;6.67;69.41;99081.98;105894;1268;25373;-66
2022/02/06 13:03:23;;;;;;;3.60;0.40;;;;;;;6.70;69.06;99075.16;106504;1269;22546;-63
2022/02/06 13:05:54;;;;;;;4.90;0.50;;;;;;;6.74;69.54;99073.56;106376;1271;22550;-65
2022/02/06 13:08:37;;;;;;;2.40;0.50;;;;;;;6.78;69.53;99068.84;105942;1271;26250;-65
2022/02/06 13:11:21;;;;;;;3.00;0.80;;;;;;;6.82;69.50;99060.17;106094;1271;22545;-63
2022/02/06 13:14:04;;;;;;;6.40;1.00;;;;;;;6.85;69.65;99051.50;106054;1271;22531;-61
2022/02/06 13:16:42;;;;;;;2.90;0.60;;;;;;;6.88;69.51;99052.79;106670;1270;25273;-63
2022/02/06 13:25:12;;;;;;;3.80;0.70;;;;;;;6.90;69.42;99048.09;106262;1271;22555;-60
2022/02/06 13:28:04;;;;;;;3.70;0.50;;;;;;;6.88;69.15;99047.00;106329;1270;25382;-60
2022/02/06 13:31:03;;;;;;;2.50;0.50;;;;;;;6.85;69.12;99046.26;105793;1271;22568;-65
2022/02/06 13:33:43;;;;;;;4.20;0.60;;;;;;;6.82;69.34;99034.61;106170;1271;22535;-60
2022/02/06 13:36:25;;;;;;;4.00;0.70;;;;;;;6.80;69.41;99030.38;106208;1271;25386;-62